Time;durP1;ratioP1;P1;durP2;ratioP2;P2;SDS_P1;SDS_P2;PMS_P1;PMS_P2;Temp;Humidity;BMP_temperature;BMP_pressure;BME280_temperature;BME280_humidity;BME280_pressure;Samples;Min_cycle;Max_cycle;Signal;HPM_P1;HPM_P2
2023/01/30 00:01:30;;;;;;;25.75;17.42;;;6.60;84.70;;;;;;5154065;27;20043;-78
2023/01/30 00:03:56;;;;;;;27.30;16.77;;;6.60;84.90;;;;;;5152017;27;20030;-78
2023/01/30 00:06:22;;;;;;;28.38;17.83;;;6.60;85.00;;;;;;5147572;27;20043;-78
2023/01/30 00:08:48;;;;;;;23.02;15.55;;;6.70;85.00;;;;;;5133840;27;20134;-78
2023/01/30 00:11:16;;;;;;;25.70;15.05;;;6.70;85.10;;;;;;5099280;27;20501;-78
2023/01/30 00:13:42;;;;;;;25.92;16.65;;;6.70;85.20;;;;;;5116354;27;20497;-78
2023/01/30 00:16:08;;;;;;;23.38;14.30;;;6.70;85.30;;;;;;5151757;27;20390;-78
2023/01/30 00:18:36;;;;;;;24.52;13.73;;;6.70;85.30;;;;;;5153388;27;20047;-78
2023/01/30 00:21:04;;;;;;;22.05;13.32;;;6.80;85.50;;;;;;5153700;27;20050;-78
2023/01/30 00:23:32;;;;;;;21.63;12.68;;;6.80;85.60;;;;;;5153302;27;20106;-78
2023/01/30 00:25:58;;;;;;;25.35;12.90;;;6.80;85.60;;;;;;5133200;27;20045;-78
2023/01/30 00:28:24;;;;;;;23.70;12.30;;;6.90;85.60;;;;;;5122129;27;20047;-78
2023/01/30 00:30:50;;;;;;;18.50;11.05;;;6.90;85.70;;;;;;5153315;27;20088;-78
2023/01/30 00:33:17;;;;;;;22.50;12.13;;;6.90;85.80;;;;;;5153280;27;20039;-77
2023/01/30 00:35:47;;;;;;;20.23;11.20;;;6.90;85.70;;;;;;5152530;27;20489;-77
2023/01/30 00:38:13;;;;;;;21.65;11.48;;;6.90;85.70;;;;;;5115528;27;20070;-77
2023/01/30 00:40:39;;;;;;;21.05;10.55;;;7.00;85.80;;;;;;5115673;27;20071;-77
2023/01/30 00:48:35;;;;;;;19.55;9.27;;;7.00;86.10;;;;;;5142180;27;20070;-77
2023/01/30 00:51:01;;;;;;;20.17;10.80;;;7.00;85.60;;;;;;5152813;27;20493;-78
2023/01/30 00:53:27;;;;;;;17.85;9.50;;;7.10;85.60;;;;;;5153258;27;20077;-77
2023/01/30 00:55:54;;;;;;;17.67;9.38;;;7.10;85.60;;;;;;5134481;27;20039;-77
2023/01/30 00:58:21;;;;;;;18.98;10.55;;;7.10;85.60;;;;;;5139759;27;20092;-77
2023/01/30 01:00:47;;;;;;;20.05;9.43;;;7.10;85.60;;;;;;5153200;27;20117;-77
2023/01/30 01:03:13;;;;;;;17.52;10.68;;;7.10;85.50;;;;;;5118907;27;20041;-77
2023/01/30 01:05:39;;;;;;;15.57;9.82;;;7.10;85.60;;;;;;5135637;27;20034;-78
2023/01/30 01:08:05;;;;;;;22.13;10.10;;;7.20;85.60;;;;;;5111195;28;20043;-78
2023/01/30 01:10:31;;;;;;;22.52;9.73;;;7.20;85.70;;;;;;5115303;28;20044;-77
2023/01/30 01:12:57;;;;;;;20.20;9.80;;;7.20;85.80;;;;;;5115462;28;20049;-77
2023/01/30 01:15:24;;;;;;;19.83;9.90;;;7.20;85.80;;;;;;5115432;27;20114;-77
2023/01/30 01:17:50;;;;;;;23.25;10.43;;;7.20;85.90;;;;;;5144984;27;20039;-77
2023/01/30 01:20:17;;;;;;;18.80;9.05;;;7.20;86.00;;;;;;5115420;28;20039;-78
2023/01/30 01:22:43;;;;;;;18.55;9.00;;;7.20;86.30;;;;;;5132427;28;20035;-78
2023/01/30 01:25:10;;;;;;;17.17;8.30;;;7.20;86.30;;;;;;5125321;27;20130;-77
2023/01/30 01:27:36;;;;;;;15.30;7.63;;;7.20;86.40;;;;;;5138868;27;20055;-76
2023/01/30 01:30:03;;;;;;;15.38;7.47;;;7.20;86.40;;;;;;5152866;27;20046;-78
2023/01/30 01:32:28;;;;;;;13.88;6.50;;;7.20;86.60;;;;;;5136189;27;20035;-78
2023/01/30 01:34:54;;;;;;;18.20;6.63;;;7.20;86.90;;;;;;5129557;27;20117;-78
2023/01/30 01:37:20;;;;;;;13.52;6.32;;;7.20;86.90;;;;;;5122350;28;20083;-77
2023/01/30 01:42:34;;;;;;;12.90;5.75;;;7.20;87.10;;;;;;5132393;27;20485;-77
2023/01/30 01:45:11;;;;;;;17.83;5.68;;;7.20;87.10;;;;;;5134162;27;20096;-78
2023/01/30 01:47:42;;;;;;;16.33;6.15;;;7.20;87.20;;;;;;5150647;27;20050;-78
2023/01/30 01:50:39;;;;;;;19.23;6.38;;;7.20;87.10;;;;;;5142671;27;20035;-78
2023/01/30 01:53:07;;;;;;;15.05;5.22;;;7.20;87.20;;;;;;5119996;27;20057;-78
2023/01/30 01:55:33;;;;;;;15.43;5.50;;;7.20;87.20;;;;;;5120234;27;20145;-78
2023/01/30 01:58:15;;;;;;;16.85;5.60;;;7.20;87.30;;;;;;5147865;27;20046;-75
2023/01/30 02:00:41;;;;;;;11.52;4.97;;;7.20;87.40;;;;;;5133586;27;20509;-76
2023/01/30 02:03:14;;;;;;;15.45;5.78;;;7.20;87.40;;;;;;5153577;27;20039;-76
2023/01/30 02:05:49;;;;;;;14.52;5.25;;;7.20;87.50;;;;;;5135433;27;20490;-75
2023/01/30 02:08:26;;;;;;;14.10;4.88;;;7.20;87.60;;;;;;5126568;27;20046;-76
2023/01/30 02:11:36;;;;;;;11.95;4.57;;;7.20;87.60;;;;;;5156490;27;20037;-75
2023/01/30 02:14:02;;;;;;;11.00;4.43;;;7.20;87.50;;;;;;5052412;28;20538;-76
2023/01/30 02:16:28;;;;;;;11.05;4.68;;;7.20;87.60;;;;;;5036686;28;20626;-75
2023/01/30 02:18:54;;;;;;;13.27;4.90;;;7.20;87.60;;;;;;5085080;27;20051;-75
2023/01/30 02:21:35;;;;;;;13.13;4.55;;;7.20;87.60;;;;;;5134967;27;20039;-75
2023/01/30 02:24:14;;;;;;;16.73;5.15;;;7.20;87.70;;;;;;5130090;27;20412;-75
2023/01/30 02:27:11;;;;;;;13.25;4.88;;;7.20;87.80;;;;;;5135070;27;20552;-76
2023/01/30 02:29:59;;;;;;;18.48;6.20;;;7.30;87.80;;;;;;5099199;27;20179;-75
2023/01/30 02:32:33;;;;;;;14.63;5.28;;;7.20;87.90;;;;;;5135000;27;20046;-75
2023/01/30 02:35:02;;;;;;;14.18;4.50;;;7.20;87.80;;;;;;5151872;27;20179;-75
2023/01/30 02:38:15;;;;;;;9.57;4.05;;;7.30;87.80;;;;;;5136235;27;20093;-75
2023/01/30 02:41:02;;;;;;;13.82;4.85;;;7.30;87.90;;;;;;5155619;27;20067;-75
2023/01/30 02:43:57;;;;;;;14.35;4.40;;;7.30;87.90;;;;;;5151722;27;20082;-75
2023/01/30 02:46:25;;;;;;;;;;;7.30;87.90;;;;;;5117918;27;20046;-75
2023/01/30 02:49:12;;;;;;;18.58;5.40;;;7.30;87.90;;;;;;5134721;27;19919;-75
2023/01/30 02:51:39;;;;;;;15.30;4.50;;;7.30;87.90;;;;;;5144228;27;20079;-75
2023/01/30 02:54:06;;;;;;;11.65;4.78;;;7.30;87.90;;;;;;5129695;27;20075;-75
2023/01/30 02:56:51;;;;;;;14.45;4.35;;;7.30;87.90;;;;;;5117690;27;20103;-76
2023/01/30 02:59:21;;;;;;;12.68;4.28;;;7.30;88.00;;;;;;5138268;27;20363;-76
2023/01/30 03:02:12;;;;;;;14.77;4.80;;;7.40;88.00;;;;;;5154978;27;20077;-75
2023/01/30 03:04:57;;;;;;;11.45;4.10;;;7.40;88.00;;;;;;5151954;27;20043;-76
2023/01/30 03:07:37;;;;;;;16.42;4.80;;;7.30;88.00;;;;;;5147436;27;20031;-75
2023/01/30 03:10:18;;;;;;;12.95;4.07;;;7.40;88.00;;;;;;5134248;27;20043;-76
2023/01/30 03:13:21;;;;;;;13.70;3.97;;;7.40;88.00;;;;;;5116575;27;20478;-75
2023/01/30 03:15:52;;;;;;;14.70;4.85;;;7.40;88.00;;;;;;5134394;27;20390;-75
2023/01/30 03:18:19;;;;;;;15.43;4.85;;;7.40;87.90;;;;;;5141130;27;20070;-75
2023/01/30 03:20:45;;;;;;;17.38;4.50;;;7.40;87.90;;;;;;5134057;27;20073;-75
2023/01/30 03:23:12;;;;;;;14.93;4.38;;;7.40;87.90;;;;;;5117011;27;20186;-76
2023/01/30 03:25:41;;;;;;;20.48;4.35;;;7.40;87.90;;;;;;5137668;27;20426;-75
2023/01/30 03:28:08;;;;;;;12.95;3.95;;;7.40;88.00;;;;;;5142553;27;20046;-75
2023/01/30 03:30:34;;;;;;;24.15;6.47;;;7.40;88.00;;;;;;5136135;27;20493;-75
2023/01/30 03:33:00;;;;;;;16.50;4.93;;;7.40;87.90;;;;;;5136883;27;20079;-75
2023/01/30 03:35:25;;;;;;;16.80;4.32;;;7.50;88.00;;;;;;5118878;27;20457;-75
2023/01/30 03:37:51;;;;;;;20.15;4.85;;;7.50;88.00;;;;;;5126681;27;20382;-75
2023/01/30 03:40:17;;;;;;;15.18;5.88;;;7.50;87.90;;;;;;5154370;27;20038;-75
2023/01/30 03:42:43;;;;;;;18.95;4.57;;;7.50;88.30;;;;;;5154018;27;20054;-75
2023/01/30 03:45:10;;;;;;;14.48;4.50;;;7.50;87.80;;;;;;5126868;27;20111;-75
2023/01/30 03:47:35;;;;;;;16.38;4.35;;;7.50;87.70;;;;;;5129046;27;20570;-75
2023/01/30 03:50:01;;;;;;;21.73;4.88;;;7.50;87.70;;;;;;5133546;27;20038;-75
2023/01/30 03:52:27;;;;;;;19.55;4.95;;;7.50;87.70;;;;;;5133689;27;20442;-76
2023/01/30 03:54:52;;;;;;;21.77;4.65;;;7.50;87.60;;;;;;5129403;27;20073;-75
2023/01/30 03:57:18;;;;;;;14.63;4.47;;;7.50;87.50;;;;;;5127291;27;20494;-75
2023/01/30 03:59:44;;;;;;;16.52;4.57;;;7.50;87.40;;;;;;5135662;27;20489;-76
2023/01/30 04:02:10;;;;;;;18.90;4.72;;;7.50;87.30;;;;;;5153814;27;20461;-75
2023/01/30 04:04:35;;;;;;;18.30;4.38;;;7.60;87.30;;;;;;5143339;27;20039;-76
2023/01/30 04:07:01;;;;;;;18.25;5.07;;;7.60;87.20;;;;;;5122512;27;20043;-75
2023/01/30 04:09:27;;;;;;;16.90;4.32;;;7.60;87.10;;;;;;5154085;27;20039;-75
2023/01/30 04:11:52;;;;;;;19.30;5.15;;;7.60;87.00;;;;;;5149921;27;20367;-75
2023/01/30 04:14:18;;;;;;;22.63;5.30;;;7.60;86.90;;;;;;5140804;27;20030;-75
2023/01/30 04:16:44;;;;;;;20.63;5.20;;;7.60;86.70;;;;;;5149891;27;20045;-75
2023/01/30 04:19:10;;;;;;;24.20;5.15;;;7.60;86.50;;;;;;5133024;27;20099;-75
2023/01/30 04:21:36;;;;;;;14.93;3.97;;;7.60;86.30;;;;;;5132975;27;20046;-75
2023/01/30 04:24:02;;;;;;;23.83;4.50;;;7.60;86.10;;;;;;5136921;27;20038;-75
2023/01/30 04:26:28;;;;;;;16.15;3.85;;;7.60;85.90;;;;;;5134558;27;20077;-75
2023/01/30 04:28:54;;;;;;;19.85;4.90;;;7.60;85.90;;;;;;5116855;27;20078;-75
2023/01/30 04:31:19;;;;;;;23.48;4.63;;;7.60;85.80;;;;;;5115751;27;20047;-75
2023/01/30 04:33:45;;;;;;;15.63;3.92;;;7.60;85.50;;;;;;5117808;27;20761;-76
2023/01/30 04:36:11;;;;;;;26.35;6.28;;;7.60;85.30;;;;;;5153201;27;20038;-75
2023/01/30 04:38:37;;;;;;;17.67;4.90;;;7.60;85.10;;;;;;5116814;27;20041;-76
2023/01/30 04:41:03;;;;;;;22.17;4.18;;;7.50;84.90;;;;;;5132664;27;20099;-75
2023/01/30 04:43:29;;;;;;;21.90;3.83;;;7.50;84.60;;;;;;5115540;27;20038;-75
2023/01/30 04:45:55;;;;;;;16.55;3.40;;;7.50;84.60;;;;;;5133953;27;20117;-75
2023/01/30 04:48:23;;;;;;;18.33;3.45;;;7.50;84.50;;;;;;5119228;27;20035;-75
2023/01/30 04:50:50;;;;;;;24.20;4.55;;;7.50;84.50;;;;;;5133043;27;20039;-75
2023/01/30 04:53:17;;;;;;;21.88;4.00;;;7.50;84.30;;;;;;5132730;27;20031;-76
2023/01/30 04:55:43;;;;;;;17.02;4.03;;;7.40;83.90;;;;;;5151269;27;20111;-75
2023/01/30 04:58:08;;;;;;;19.65;3.88;;;7.40;83.80;;;;;;5147229;27;20486;-76
2023/01/30 05:00:34;;;;;;;18.27;3.67;;;7.40;83.70;;;;;;5118643;27;20083;-75
2023/01/30 05:03:00;;;;;;;20.27;4.07;;;7.40;83.60;;;;;;5150063;27;20076;-75
2023/01/30 05:05:27;;;;;;;23.42;4.68;;;7.30;83.40;;;;;;5152523;27;20170;-75
2023/01/30 05:07:53;;;;;;;17.15;3.90;;;7.30;83.30;;;;;;5140301;27;20043;-75
2023/01/30 05:10:19;;;;;;;19.52;4.28;;;7.30;83.20;;;;;;5132644;27;20046;-75
2023/01/30 05:12:44;;;;;;;21.38;4.47;;;7.30;83.10;;;;;;5115034;28;20490;-75
2023/01/30 05:15:11;;;;;;;17.55;3.40;;;7.20;83.00;;;;;;5132233;27;20512;-75
2023/01/30 05:17:37;;;;;;;21.83;4.45;;;7.20;82.90;;;;;;5132950;27;20043;-75
2023/01/30 05:20:07;;;;;;;21.08;4.68;;;7.20;82.90;;;;;;5152712;27;20030;-75
2023/01/30 05:22:32;;;;;;;21.52;4.68;;;7.10;82.90;;;;;;5124644;27;20074;-75
2023/01/30 05:24:58;;;;;;;20.70;4.25;;;7.10;82.90;;;;;;5098098;27;20147;-75
2023/01/30 05:27:24;;;;;;;24.88;4.55;;;7.00;82.80;;;;;;5115704;27;20047;-75
2023/01/30 05:29:50;;;;;;;16.67;4.10;;;7.00;83.20;;;;;;5135530;27;20042;-75
2023/01/30 05:32:17;;;;;;;22.65;4.72;;;7.00;82.70;;;;;;5149928;27;20062;-76
2023/01/30 05:34:43;;;;;;;23.13;5.10;;;7.00;82.70;;;;;;5153125;27;20042;-75
2023/01/30 05:37:10;;;;;;;21.55;4.85;;;6.90;82.40;;;;;;5138926;27;20435;-76
2023/01/30 05:39:36;;;;;;;27.55;5.25;;;6.80;82.30;;;;;;5139540;27;20039;-76
2023/01/30 05:42:02;;;;;;;21.17;4.47;;;6.90;82.20;;;;;;5133747;27;20198;-76
2023/01/30 05:44:28;;;;;;;22.05;4.70;;;6.80;82.00;;;;;;5135962;27;20553;-76
2023/01/30 05:46:53;;;;;;;21.85;3.88;;;6.70;81.90;;;;;;5118998;27;20043;-76
2023/01/30 05:49:19;;;;;;;22.55;4.25;;;6.70;81.80;;;;;;5129138;27;20497;-75
2023/01/30 05:51:45;;;;;;;16.77;4.07;;;6.70;81.70;;;;;;5152987;27;20371;-76
2023/01/30 05:54:11;;;;;;;25.15;3.83;;;6.60;81.50;;;;;;5119739;27;20035;-75
2023/01/30 05:56:37;;;;;;;24.85;4.25;;;6.60;81.30;;;;;;5118670;27;20054;-75
2023/01/30 05:59:03;;;;;;;18.92;3.55;;;6.60;81.20;;;;;;5118554;27;20035;-76
2023/01/30 06:01:29;;;;;;;18.25;3.85;;;6.50;81.00;;;;;;5121153;27;20045;-76
2023/01/30 06:03:56;;;;;;;18.20;3.17;;;6.50;81.00;;;;;;5138492;27;20041;-75
2023/01/30 06:06:23;;;;;;;23.50;4.57;;;6.50;80.90;;;;;;5139194;27;20065;-76
2023/01/30 06:08:52;;;;;;;22.00;4.30;;;6.40;80.70;;;;;;5156225;27;20030;-75
2023/01/30 06:11:18;;;;;;;22.70;3.95;;;6.40;80.80;;;;;;5156200;27;20113;-76
2023/01/30 06:13:44;;;;;;;17.88;4.35;;;6.40;80.70;;;;;;5145137;27;20114;-76
2023/01/30 06:16:12;;;;;;;21.65;3.83;;;6.40;80.70;;;;;;5135418;27;20494;-76
2023/01/30 06:18:39;;;;;;;24.73;4.25;;;6.40;80.60;;;;;;5135441;27;20037;-76
2023/01/30 06:21:06;;;;;;;22.67;3.95;;;6.30;80.60;;;;;;5135217;27;20039;-76
2023/01/30 06:23:32;;;;;;;21.65;4.22;;;6.30;80.50;;;;;;5127102;27;20385;-76
2023/01/30 06:25:57;;;;;;;20.50;4.18;;;6.30;80.50;;;;;;5121518;27;20031;-75
2023/01/30 06:28:24;;;;;;;15.25;3.50;;;6.30;80.50;;;;;;5138410;27;20107;-76
2023/01/30 06:30:51;;;;;;;18.75;4.30;;;6.30;80.60;;;;;;5154503;27;20389;-76
2023/01/30 06:33:17;;;;;;;17.50;3.67;;;6.30;80.70;;;;;;5141095;27;20084;-77
2023/01/30 06:35:44;;;;;;;20.25;4.00;;;6.30;80.80;;;;;;5138377;27;20130;-77
2023/01/30 06:38:12;;;;;;;21.23;3.83;;;6.30;80.90;;;;;;5155669;27;20043;-76
2023/01/30 06:40:38;;;;;;;25.92;4.78;;;6.30;80.90;;;;;;5155761;27;20046;-76
2023/01/30 06:43:04;;;;;;;26.33;4.10;;;6.30;81.00;;;;;;5150862;27;20027;-76
2023/01/30 06:45:29;;;;;;;21.63;4.75;;;6.30;81.00;;;;;;5134956;27;20363;-76
2023/01/30 06:47:56;;;;;;;17.63;3.85;;;6.30;81.10;;;;;;5142519;27;20088;-76
2023/01/30 06:50:24;;;;;;;19.30;4.20;;;6.30;81.00;;;;;;5155317;27;20027;-76
2023/01/30 06:52:51;;;;;;;25.17;4.20;;;6.30;80.90;;;;;;5135804;27;20035;-76
2023/01/30 06:55:20;;;;;;;25.15;4.45;;;6.30;80.80;;;;;;5117286;27;20047;-76
2023/01/30 06:57:46;;;;;;;21.73;4.25;;;6.30;80.60;;;;;;5134395;27;20043;-75
2023/01/30 07:00:17;;;;;;;23.95;4.35;;;6.30;80.30;;;;;;5134612;27;20049;-75
2023/01/30 07:02:43;;;;;;;20.13;3.53;;;6.40;80.20;;;;;;5148250;27;20043;-75
2023/01/30 07:05:10;;;;;;;22.25;4.35;;;6.30;80.10;;;;;;5154770;27;20522;-76
2023/01/30 07:07:36;;;;;;;20.83;4.18;;;6.30;79.90;;;;;;5137810;27;20045;-77
2023/01/30 07:10:03;;;;;;;26.13;4.82;;;6.30;79.90;;;;;;5155450;27;20382;-75
2023/01/30 07:12:29;;;;;;;21.20;4.88;;;6.30;79.90;;;;;;5154841;27;20042;-76
2023/01/30 07:14:55;;;;;;;24.08;4.30;;;6.30;79.80;;;;;;5135568;27;20084;-75
2023/01/30 07:17:21;;;;;;;20.20;3.80;;;6.30;79.70;;;;;;5153697;27;20035;-76
2023/01/30 07:19:47;;;;;;;22.42;4.53;;;6.30;79.70;;;;;;5154799;27;20038;-75
2023/01/30 07:22:13;;;;;;;27.77;4.20;;;6.30;79.50;;;;;;5137080;27;20046;-75
2023/01/30 07:24:41;;;;;;;24.70;4.55;;;6.30;79.50;;;;;;5138197;27;20395;-75
2023/01/30 07:27:08;;;;;;;24.10;4.57;;;6.20;79.30;;;;;;5116940;27;20047;-75
2023/01/30 07:29:35;;;;;;;17.52;3.70;;;6.30;79.20;;;;;;5116943;27;20130;-75
2023/01/30 07:32:01;;;;;;;17.55;4.03;;;6.30;79.10;;;;;;5110559;27;20030;-75
2023/01/30 07:34:27;;;;;;;16.42;3.22;;;6.30;79.10;;;;;;5133771;27;20067;-75
2023/01/30 07:36:52;;;;;;;25.20;4.95;;;6.30;79.00;;;;;;5116752;27;20081;-75
2023/01/30 07:39:18;;;;;;;23.98;4.95;;;6.30;79.50;;;;;;5099724;27;20074;-75
2023/01/30 07:41:44;;;;;;;21.17;3.47;;;6.30;79.20;;;;;;5119112;27;20035;-75
2023/01/30 07:44:10;;;;;;;26.73;4.10;;;6.20;79.10;;;;;;5113283;27;20043;-75
2023/01/30 07:46:36;;;;;;;24.65;5.22;;;6.30;79.40;;;;;;5142110;27;20037;-75
2023/01/30 07:49:05;;;;;;;23.05;3.83;;;6.30;79.50;;;;;;5122333;27;20537;-75
2023/01/30 07:51:31;;;;;;;23.05;4.32;;;6.30;79.60;;;;;;5148741;27;20043;-75
2023/01/30 07:53:57;;;;;;;20.88;4.35;;;6.30;79.70;;;;;;5120069;27;20500;-76
2023/01/30 07:56:23;;;;;;;21.77;4.18;;;6.40;79.80;;;;;;5128851;27;20390;-75
2023/01/30 07:58:50;;;;;;;32.38;4.90;;;6.40;79.90;;;;;;5127579;27;20095;-75
2023/01/30 08:01:16;;;;;;;28.00;5.25;;;6.40;80.00;;;;;;5137179;27;20393;-75
2023/01/30 08:03:44;;;;;;;23.55;5.18;;;6.40;80.00;;;;;;5147474;27;20053;-77
2023/01/30 08:06:11;;;;;;;21.13;3.70;;;6.40;79.90;;;;;;5147003;27;20054;-77
2023/01/30 08:08:37;;;;;;;23.63;4.47;;;6.50;79.90;;;;;;5129731;27;20038;-77
2023/01/30 08:11:03;;;;;;;20.88;4.68;;;6.50;79.80;;;;;;5096668;27;20041;-77
2023/01/30 08:13:28;;;;;;;30.30;5.10;;;6.50;79.70;;;;;;5130811;27;20070;-78
2023/01/30 08:15:54;;;;;;;21.98;4.47;;;6.50;79.60;;;;;;5147313;27;20111;-78
2023/01/30 08:18:20;;;;;;;23.52;3.92;;;6.60;79.50;;;;;;5129780;27;20053;-78
2023/01/30 08:20:45;;;;;;;27.73;4.55;;;6.50;79.40;;;;;;5146432;27;20455;-78
2023/01/30 08:23:11;;;;;;;25.83;4.55;;;6.60;79.30;;;;;;5147210;27;20051;-78
2023/01/30 08:25:37;;;;;;;29.75;5.65;;;6.60;79.30;;;;;;5129040;27;20043;-76
2023/01/30 08:28:03;;;;;;;32.10;6.30;;;6.60;79.10;;;;;;5112935;27;20073;-75
2023/01/30 08:30:30;;;;;;;22.52;5.05;;;6.60;79.00;;;;;;5130150;27;20042;-75
2023/01/30 08:32:57;;;;;;;25.13;4.35;;;6.70;79.00;;;;;;5147633;27;20435;-75
2023/01/30 08:35:23;;;;;;;27.67;4.40;;;6.60;78.90;;;;;;5130207;27;20038;-75
2023/01/30 08:37:48;;;;;;;19.13;5.15;;;6.70;79.00;;;;;;5129933;27;20037;-75
2023/01/30 08:40:14;;;;;;;26.63;5.07;;;6.70;78.90;;;;;;5130345;27;20042;-75
2023/01/30 08:42:44;;;;;;;30.83;5.63;;;6.70;78.90;;;;;;5130240;27;20485;-76
2023/01/30 08:45:10;;;;;;;25.98;5.90;;;6.70;78.90;;;;;;5130054;27;20062;-76
2023/01/30 08:47:35;;;;;;;26.13;5.13;;;6.70;78.60;;;;;;5147079;27;20085;-75
2023/01/30 08:50:02;;;;;;;20.55;4.13;;;6.70;78.40;;;;;;5147118;27;20066;-76
2023/01/30 08:52:28;;;;;;;24.10;4.00;;;6.70;78.50;;;;;;5147065;27;20042;-76
2023/01/30 08:54:53;;;;;;;25.23;5.78;;;6.80;78.40;;;;;;5145427;27;20031;-75
2023/01/30 08:57:19;;;;;;;18.92;4.47;;;6.80;78.30;;;;;;5147398;27;20031;-75
2023/01/30 08:59:44;;;;;;;22.15;4.40;;;6.90;78.30;;;;;;5147508;27;20690;-76
2023/01/30 09:02:11;;;;;;;24.80;4.50;;;6.80;78.10;;;;;;5147263;27;20050;-76
2023/01/30 09:04:37;;;;;;;24.80;5.13;;;6.80;78.10;;;;;;5130241;27;20074;-76
2023/01/30 09:07:03;;;;;;;20.38;5.35;;;6.80;78.10;;;;;;5129748;27;20062;-75
2023/01/30 09:09:29;;;;;;;16.92;3.88;;;6.80;78.00;;;;;;5130250;27;20134;-76
2023/01/30 09:11:55;;;;;;;22.80;4.97;;;6.90;78.10;;;;;;5130979;27;20541;-75
2023/01/30 09:14:20;;;;;;;22.88;4.68;;;6.90;78.00;;;;;;5133899;27;20038;-75
2023/01/30 09:16:48;;;;;;;19.50;4.55;;;6.90;77.80;;;;;;5132780;27;20079;-75
2023/01/30 09:19:14;;;;;;;26.65;4.55;;;6.90;77.70;;;;;;5151033;27;20035;-74
2023/01/30 09:21:39;;;;;;;23.42;5.13;;;7.00;77.60;;;;;;5150268;27;20401;-75
2023/01/30 09:24:05;;;;;;;23.42;4.03;;;7.00;77.50;;;;;;5132177;27;20042;-74
2023/01/30 09:26:31;;;;;;;28.17;6.15;;;7.00;77.40;;;;;;5148468;27;20038;-75
2023/01/30 09:28:57;;;;;;;26.50;5.00;;;7.00;77.20;;;;;;5150066;27;20524;-75
2023/01/30 09:31:23;;;;;;;29.40;6.15;;;7.00;77.20;;;;;;5116268;27;20045;-75
2023/01/30 09:33:48;;;;;;;25.65;5.53;;;7.00;77.20;;;;;;5133671;27;20019;-75
2023/01/30 09:36:14;;;;;;;23.15;5.40;;;7.10;77.40;;;;;;5112162;27;20078;-76
2023/01/30 09:38:40;;;;;;;21.38;4.60;;;7.10;77.50;;;;;;5113285;27;20480;-75
2023/01/30 09:41:57;;;;;;;23.98;5.35;;;7.20;77.40;;;;;;5149111;27;20034;-78
2023/01/30 09:44:51;;;;;;;26.35;4.47;;;7.30;77.10;;;;;;5108149;27;20043;-77
2023/01/30 09:47:38;;;;;;;25.17;4.40;;;7.30;77.20;;;;;;5156453;27;20655;-78
2023/01/30 09:50:41;;;;;;;23.75;5.07;;;7.40;77.10;;;;;;5131912;27;20104;-78
2023/01/30 09:53:42;;;;;;;20.80;5.68;;;7.50;76.90;;;;;;5165606;27;20521;-78
2023/01/30 09:56:08;;;;;;;22.30;4.07;;;7.50;76.70;;;;;;5148229;27;20030;-78
2023/01/30 09:58:41;;;;;;;24.08;4.53;;;7.60;76.60;;;;;;5131426;27;20550;-78
2023/01/30 10:01:26;;;;;;;21.38;5.43;;;7.70;76.30;;;;;;5149494;27;20038;-76
2023/01/30 10:04:24;;;;;;;23.05;4.30;;;7.70;76.40;;;;;;5149347;27;20023;-77
2023/01/30 10:06:58;;;;;;;26.73;4.35;;;7.80;76.10;;;;;;5149570;27;20106;-77
2023/01/30 10:09:34;;;;;;;20.88;5.10;;;7.80;75.90;;;;;;5149192;27;20126;-77
2023/01/30 10:12:05;;;;;;;24.08;4.13;;;7.90;75.60;;;;;;5148924;27;20419;-77
2023/01/30 10:14:37;;;;;;;22.23;4.72;;;7.90;75.30;;;;;;5149147;27;20059;-77
2023/01/30 10:17:25;;;;;;;26.27;5.10;;;7.90;75.20;;;;;;5150180;27;20072;-77
2023/01/30 10:20:06;;;;;;;24.15;4.40;;;8.00;75.10;;;;;;5149663;27;20043;-77
2023/01/30 10:22:47;;;;;;;24.98;4.20;;;8.00;75.10;;;;;;5128991;27;20525;-78
2023/01/30 10:25:39;;;;;;;22.08;5.82;;;8.10;75.10;;;;;;5131954;27;20620;-76
2023/01/30 10:28:21;;;;;;;31.20;5.00;;;8.10;74.80;;;;;;5147764;27;20081;-77
2023/01/30 10:30:50;;;;;;;21.95;4.22;;;8.20;74.20;;;;;;5145171;27;20035;-77
2023/01/30 10:33:49;;;;;;;23.70;5.22;;;8.20;74.00;;;;;;5132756;27;20031;-77
2023/01/30 10:36:32;;;;;;;23.33;5.35;;;8.30;73.50;;;;;;5148498;27;20110;-77
2023/01/30 10:39:01;;;;;;;19.33;4.50;;;8.30;73.30;;;;;;5131473;27;20042;-78
2023/01/30 10:41:36;;;;;;;28.15;5.68;;;8.30;73.30;;;;;;5131297;27;20023;-78
2023/01/30 10:44:13;;;;;;;29.67;5.35;;;8.30;73.10;;;;;;5147941;27;20046;-78
2023/01/30 10:47:09;;;;;;;24.75;4.70;;;8.30;73.00;;;;;;5149094;27;20524;-78
2023/01/30 10:49:39;;;;;;;25.25;6.60;;;8.30;72.90;;;;;;5132124;27;20039;-78
2023/01/30 10:52:40;;;;;;;22.77;5.45;;;8.30;73.10;;;;;;5147393;27;20124;-78
2023/01/30 10:55:15;;;;;;;24.10;5.10;;;8.30;73.10;;;;;;5130861;27;20039;-78
2023/01/30 10:57:52;;;;;;;25.10;5.07;;;8.30;73.10;;;;;;5147611;27;20085;-79
2023/01/30 11:00:28;;;;;;;26.13;4.60;;;8.20;73.30;;;;;;5147258;27;20501;-79
2023/01/30 11:03:00;;;;;;;24.42;4.93;;;8.20;73.20;;;;;;5143929;27;20031;-79
2023/01/30 11:05:40;;;;;;;29.92;5.07;;;8.20;73.10;;;;;;5131408;27;20493;-79
2023/01/30 11:08:19;;;;;;;30.08;10.80;;;8.20;73.30;;;;;;5127659;27;20127;-78
2023/01/30 11:10:45;;;;;;;23.80;5.00;;;8.20;73.30;;;;;;5147528;27;20037;-78
2023/01/30 11:13:18;;;;;;;25.75;5.65;;;8.20;73.40;;;;;;5131002;27;21473;-78
2023/01/30 11:15:47;;;;;;;29.25;7.20;;;8.20;73.30;;;;;;5147352;27;20030;-79
2023/01/30 11:18:13;;;;;;;22.33;4.85;;;8.20;73.40;;;;;;5147494;27;20038;-78
2023/01/30 11:20:41;;;;;;;22.23;5.68;;;8.20;73.30;;;;;;5144117;27;20043;-78
2023/01/30 11:23:23;;;;;;;37.55;5.82;;;8.20;73.20;;;;;;5147376;27;20051;-78
2023/01/30 11:25:58;;;;;;;25.55;5.80;;;8.20;72.40;;;;;;5146276;27;20084;-79
2023/01/30 11:28:25;;;;;;;36.58;6.85;;;8.20;72.80;;;;;;5146194;27;20370;-79
2023/01/30 11:30:59;;;;;;;29.83;5.43;;;8.20;72.80;;;;;;5129935;27;20053;-79
2023/01/30 11:33:37;;;;;;;34.28;6.13;;;8.20;72.70;;;;;;5145414;27;20061;-79
2023/01/30 11:36:22;;;;;;;31.02;6.35;;;8.30;72.80;;;;;;5128218;27;20042;-79
2023/01/30 11:39:02;;;;;;;23.75;4.65;;;8.30;72.70;;;;;;5128799;27;20034;-80
2023/01/30 11:41:28;;;;;;;16.30;4.30;;;8.30;72.10;;;;;;5145361;27;20438;-79
2023/01/30 11:44:03;;;;;;;22.40;5.05;;;8.30;72.00;;;;;;5146161;27;20043;-79
2023/01/30 11:46:41;;;;;;;26.67;5.00;;;8.30;71.90;;;;;;5128486;27;20521;-80
2023/01/30 11:49:17;;;;;;;24.90;5.70;;;8.30;71.40;;;;;;5147644;27;20043;-79
2023/01/30 11:51:46;;;;;;;21.20;4.93;;;8.30;71.00;;;;;;5131091;27;21411;-79
2023/01/30 11:54:15;;;;;;;23.45;5.68;;;8.30;71.30;;;;;;5135355;27;20454;-79
2023/01/30 11:56:47;;;;;;;23.40;4.85;;;8.30;71.40;;;;;;5121650;27;20077;-79
2023/01/30 11:59:53;;;;;;;29.02;5.38;;;8.30;71.20;;;;;;5134581;27;20063;-79
2023/01/30 12:02:22;;;;;;;;;;;8.40;71.30;;;;;;5091000;27;20134;-79
2023/01/30 12:04:54;;;;;;;19.95;4.18;;;8.40;71.80;;;;;;5135322;27;19923;-80
2023/01/30 12:07:24;;;;;;;28.25;4.80;;;8.30;71.70;;;;;;5136003;27;20047;-79
2023/01/30 12:09:51;;;;;;;23.55;5.38;;;8.40;71.80;;;;;;5138871;27;20363;-80
2023/01/30 12:12:28;;;;;;;24.38;5.63;;;8.30;71.60;;;;;;5117365;27;20382;-79
2023/01/30 12:15:20;;;;;;;23.00;4.55;;;8.30;71.40;;;;;;5134772;27;20034;-79
2023/01/30 12:17:50;;;;;;;18.65;4.22;;;8.30;71.60;;;;;;5133832;27;20493;-80
2023/01/30 12:20:56;;;;;;;20.90;4.53;;;8.30;71.60;;;;;;5137961;27;20093;-79
2023/01/30 12:23:35;;;;;;;24.08;4.88;;;8.30;71.20;;;;;;5055026;27;20051;-80
2023/01/30 12:26:21;;;;;;;21.05;3.35;;;8.30;71.70;;;;;;5140337;27;20043;-80
2023/01/30 12:29:14;;;;;;;11.60;2.63;;;8.20;72.10;;;;;;5117745;27;20047;-79
2023/01/30 12:32:01;;;;;;;11.93;2.45;;;8.20;72.00;;;;;;5122075;27;20043;-79
2023/01/30 12:34:27;;;;;;;7.45;1.85;;;8.10;72.20;;;;;;5120204;27;20084;-79
2023/01/30 12:37:19;;;;;;;12.55;2.60;;;8.00;72.00;;;;;;5141164;27;20043;-79
2023/01/30 12:40:02;;;;;;;11.55;2.45;;;8.00;72.30;;;;;;5124100;27;20034;-80
2023/01/30 12:42:55;;;;;;;14.50;3.03;;;7.90;72.80;;;;;;5120406;27;21387;-79
2023/01/30 12:45:25;;;;;;;12.93;2.58;;;7.80;73.20;;;;;;5121323;27;20363;-80
2023/01/30 12:48:15;;;;;;;16.08;2.47;;;7.80;73.50;;;;;;5138221;27;20039;-80
2023/01/30 12:50:53;;;;;;;16.23;3.28;;;7.70;73.50;;;;;;5155333;27;20035;-80
2023/01/30 12:53:46;;;;;;;12.90;2.55;;;7.70;73.90;;;;;;5118374;27;20103;-80
2023/01/30 12:56:47;;;;;;;16.33;3.38;;;7.70;73.90;;;;;;5138767;27;20060;-80
2023/01/30 12:59:23;;;;;;;21.38;3.33;;;7.70;74.20;;;;;;5140590;27;20031;-79
2023/01/30 13:02:14;;;;;;;21.63;4.97;;;7.70;74.40;;;;;;5136989;27;20041;-80
2023/01/30 13:05:21;;;;;;;21.05;4.28;;;7.80;74.40;;;;;;5122234;27;20063;-80
2023/01/30 13:07:58;;;;;;;19.17;4.10;;;7.80;74.50;;;;;;5137075;27;20131;-80
2023/01/30 13:10:47;;;;;;;19.17;3.47;;;7.80;74.80;;;;;;5136808;27;20161;-79
2023/01/30 13:13:51;;;;;;;20.38;3.60;;;7.80;74.70;;;;;;5120456;27;20038;-80
2023/01/30 13:16:35;;;;;;;21.90;4.00;;;7.90;74.90;;;;;;5116314;27;20036;-81